< Cyclone 197616 1976 Season Cyclone 197618 >
Cyclone 197617 (HOPE)
General InformationTrack Information on Google Maps || ResourceGoogle EarthGE AnimationAtom FeedGeoJSON
Detalied Best Track (Time Zone = UTC)
Year Month Day Hour Lat. Long. Pressure (hPa) Wind (kt) Class Image Chart
1976 2 24 00 -5.9 156.0 -1 0 0 -- --
1976 2 24 06 -5.9 157.1 -1 0 0 -- --
1976 2 24 12 -6.2 157.8 -1 0 0 -- --
1976 2 24 18 -6.7 158.2 -1 0 0 -- --
1976 2 25 00 -7.3 158.3 -1 0 0 -- --
1976 2 25 06 -8.0 158.3 -1 0 0 -- --
1976 2 25 12 -8.7 158.2 -1 0 0 -- --
1976 2 25 18 -9.5 158.0 -1 0 0 -- --
1976 2 26 00 -10.2 157.7 -1 0 0 -- --
1976 2 26 06 -10.7 157.3 -1 0 0 -- --
1976 2 26 12 -11.0 156.9 -1 0 0 -- --
1976 2 26 18 -11.1 156.3 -1 0 0 -- --
1976 2 27 00 -11.2 155.7 -1 0 0 -- --
1976 2 27 06 -11.4 155.2 -1 0 0 -- --
1976 2 27 12 -11.6 154.7 -1 0 0 -- --
1976 2 27 18 -11.9 154.3 -1 0 0 -- --
1976 2 28 00 -12.5 154.1 -1 0 0 -- --
1976 2 28 06 -13.2 154.5 -1 0 0 -- --
1976 2 28 12 -14.0 155.0 -1 0 0 -- --
1976 2 28 18 -14.7 155.3 -1 0 0 -- --
1976 2 29 00 -15.5 155.5 -1 0 0 -- --
1976 2 29 06 -16.6 155.6 -1 0 0 -- --
1976 2 29 12 -17.7 155.6 -1 0 0 -- --
1976 2 29 18 -18.8 155.6 -1 0 0 -- --
1976 3 1 00 -19.9 155.6 -1 0 0 -- --
1976 3 1 06 -20.8 155.5 -1 0 0 -- --
1976 3 1 12 -21.6 155.4 -1 0 0 -- --
1976 3 1 18 -22.5 155.2 -1 0 0 -- --
1976 3 2 00 -23.4 155.0 -1 0 0 -- --
1976 3 2 06 -24.3 154.9 -1 0 0 -- --
1976 3 2 12 -25.3 155.2 -1 0 0 -- --
1976 3 2 18 -26.4 156.0 -1 0 0 -- --
1976 3 3 00 -27.5 156.8 -1 0 0 -- --
1976 3 3 06 -28.3 157.4 -1 0 0 -- --
1976 3 3 12 -29.1 158.0 -1 0 0 -- --
1976 3 3 18 -30.0 158.5 -1 0 0 -- --
1976 3 4 00 -31.0 158.7 -1 0 0 -- --
1976 3 4 06 -32.1 158.5 -1 0 0 -- --
1976 3 4 12 -33.3 158.0 -1 0 0 -- --
1976 3 4 18 -34.5 157.4 -1 0 0 -- --
1976 3 5 00 -35.8 156.7 -1 0 0 -- --
1976 3 5 06 -37.1 156.1 -1 0 0 -- --
1976 3 5 12 -38.4 155.4 -1 0 0 -- --
1976 3 5 18 -39.9 154.8 -1 0 0 -- --
1976 3 6 00 -41.7 154.2 -1 0 0 -- --
< Cyclone 197616 1976 Season Cyclone 197618 >

Help